KLIT

Clinton National Airport

Airport
ICAO code
KLIT
IATA Code
LIT
Summary
ICAO Region
NAM
ICAO Territory
Location

Little Rock, Arkansas

Serving
Little Rock
Elevation
262 ft
Coordinates
34° 43' 48" N , 92° 13' 33" W
KCC
Airport LOS
Parallel Runway Operation
Airport RE
Engineered Materials Arresting System
Metar
KLIT 181653Z 22007KT 3SM -RA BKN019 OVC024 23/21 A2997 RMK AO2 RAB23 SLP147 P0000 T02330206

Description

Bill and Hillary Clinton Airport, also known as Adams Field, serves Little Rock, Arkansas, USA, located 2 nm east of the city's business district. It is a joint civil-military airport.

 

Runways

Designator Length Width Surface Rops
18/36 1562 46 CON Yes/Yes
04R/22L 2195 46 CON Yes/Yes
04L/22R 2522 46 CON Yes/Yes

Airport map

Aerial View

Airport accidents

SKYbrary Partners:

Safety knowledge contributed by: